Minneapolis, Minnesota
Traffic Map
Current Weather Conditions
Minneapolis, Minnesota
Clear
Clear
58°
Feels Like: 58°
Wind Chill: 58° Ceiling: Unl
Heat Index: 58° Visibility: 10mi
Dew Point: 53° Wind: 0mph
Humidity: 84% Direction: ° ()
Pressure: 30.14in Gusts: 0mph
Raw Report DataKMSP 260753Z 00000KT 10SM CLR 14/12 A3014 RMK AO2 SLP205 T01440117
Traffic Incident Summary
Active as of:
Severity:
Category:
InformationThere was an issue retrieving the traffic information for this location. Please try a different location or try again shortly.
Advertisements
Track Severe Weather on mobile